createdAt,value
2018-04-17T00:00:07.178Z,2.90
2018-04-17T00:02:35.108Z,2.83
2018-04-17T00:05:03.364Z,4.12
2018-04-17T00:07:31.458Z,3.65
2018-04-17T00:09:59.663Z,3.30
2018-04-17T00:12:27.744Z,4.50
2018-04-17T00:14:55.944Z,4.75
2018-04-17T00:17:24.138Z,4.68
2018-04-17T00:19:52.319Z,4.37
2018-04-17T00:22:20.420Z,5.20
2018-04-17T00:24:48.717Z,6.20
2018-04-17T00:27:16.897Z,6.32
2018-04-17T00:29:45.197Z,8.18
2018-04-17T00:32:13.497Z,7.15
2018-04-17T00:34:41.899Z,7.72
2018-04-17T00:37:10.195Z,8.13
2018-04-17T00:39:38.484Z,9.88
2018-04-17T00:42:06.682Z,8.77
2018-04-17T00:44:34.800Z,7.78
2018-04-17T00:47:02.763Z,8.57
2018-04-17T00:49:30.960Z,8.82
2018-04-17T00:51:59.059Z,7.20
2018-04-17T00:54:27.245Z,8.40
2018-04-17T00:56:55.345Z,7.95
2018-04-17T00:59:23.547Z,7.30
2018-04-17T01:01:51.729Z,8.77
2018-04-17T01:04:20.025Z,8.05
2018-04-17T01:06:48.324Z,7.78
2018-04-17T01:09:16.719Z,7.15
2018-04-17T01:11:45.019Z,6.72
2018-04-17T01:14:13.324Z,7.28
2018-04-17T01:16:41.608Z,7.78
2018-04-17T01:19:09.920Z,6.35
2018-04-17T01:21:38.000Z,6.28
2018-04-17T01:24:06.206Z,6.65
2018-04-17T01:26:34.292Z,7.43
2018-04-17T01:29:02.324Z,6.75
2018-04-17T01:31:30.470Z,6.75
2018-04-17T01:33:58.661Z,7.80
2018-04-17T01:36:26.857Z,7.07
2018-04-17T01:38:54.945Z,8.30
2018-04-17T01:41:23.145Z,5.68
2018-04-17T01:43:51.240Z,7.95
2018-04-17T01:46:19.540Z,9.50
2018-04-17T01:48:47.737Z,9.32
2018-04-17T01:51:16.019Z,9.25
2018-04-17T01:53:44.320Z,9.73
2018-04-17T01:56:12.690Z,8.00
2018-04-17T01:58:40.930Z,9.02
2018-04-17T02:01:10.043Z,8.10
2018-04-17T02:03:38.244Z,8.45
2018-04-17T02:06:06.425Z,8.35
2018-04-17T02:08:34.624Z,8.35
2018-04-17T02:11:02.757Z,8.40
2018-04-17T02:13:31.002Z,8.10
2018-04-17T02:15:59.214Z,8.70
2018-04-17T02:18:27.305Z,7.53
2018-04-17T02:20:55.483Z,7.78
2018-04-17T02:23:23.588Z,8.00
2018-04-17T02:25:51.983Z,7.95
2018-04-17T02:28:20.284Z,7.40
2018-04-17T02:30:48.581Z,7.97
2018-04-17T02:33:16.773Z,8.80
2018-04-17T02:35:45.062Z,8.88
2018-04-17T02:38:13.264Z,9.07
2018-04-17T02:40:41.563Z,8.38
2018-04-17T02:43:09.765Z,8.90
2018-04-17T02:45:37.952Z,8.10
2018-04-17T02:48:06.044Z,8.30
2018-04-17T02:50:34.225Z,7.70
2018-04-17T02:53:02.325Z,5.10
2018-04-17T02:55:30.525Z,5.62
2018-04-17T02:57:58.605Z,4.78
2018-04-17T03:00:26.801Z,5.10
2018-04-17T03:02:55.004Z,4.53
2018-04-17T03:05:23.283Z,5.40
2018-04-17T03:07:51.605Z,4.72
2018-04-17T03:10:19.881Z,4.70
2018-04-17T03:12:48.182Z,3.60
2018-04-17T03:15:16.483Z,4.97
2018-04-17T03:17:44.781Z,4.90
2018-04-17T03:20:13.080Z,4.87
2018-04-17T03:22:41.270Z,4.50
2018-04-17T03:25:09.462Z,4.18
2018-04-17T03:27:37.649Z,4.68
2018-04-17T03:30:05.863Z,5.35
2018-04-17T03:32:33.938Z,4.47
2018-04-17T03:35:02.038Z,4.68
2018-04-17T03:37:30.128Z,3.50
2018-04-17T03:39:58.323Z,3.83
2018-04-17T03:42:26.521Z,5.60
2018-04-17T03:44:54.712Z,3.92
2018-04-17T03:47:22.921Z,4.25
2018-04-17T03:49:51.187Z,4.70
2018-04-17T03:52:19.498Z,9.27
2018-04-17T03:54:47.797Z,5.32
2018-04-17T03:57:15.977Z,4.72
2018-04-17T03:59:44.284Z,4.53
2018-04-17T04:02:12.480Z,5.20
2018-04-17T04:04:40.680Z,4.80
2018-04-17T04:07:08.862Z,4.37
2018-04-17T04:09:36.958Z,4.87
2018-04-17T04:12:05.159Z,4.72
2018-04-17T04:14:33.343Z,5.68
2018-04-17T04:17:01.537Z,4.90
2018-04-17T04:19:29.543Z,5.75
2018-04-17T04:21:57.822Z,5.80
2018-04-17T04:24:25.921Z,5.35
2018-04-17T04:26:54.311Z,5.82
2018-04-17T04:29:22.627Z,7.03
2018-04-17T04:31:50.919Z,5.87
2018-04-17T04:34:19.220Z,4.12
2018-04-17T04:36:47.603Z,4.43
2018-04-17T04:39:15.899Z,4.80
2018-04-17T04:41:44.004Z,4.65
2018-04-17T04:44:12.299Z,3.95
2018-04-17T04:46:40.479Z,4.70
2018-04-17T04:49:08.580Z,5.50
2018-04-17T04:51:36.785Z,5.35
2018-04-17T04:54:04.864Z,4.80
2018-04-17T04:56:33.063Z,5.40
2018-04-17T04:59:01.259Z,5.85
2018-04-17T05:01:29.339Z,5.57
2018-04-17T05:03:57.433Z,4.93
2018-04-17T05:06:25.736Z,5.80
2018-04-17T05:08:54.026Z,5.47
2018-04-17T05:11:22.332Z,6.25
2018-04-17T05:13:50.727Z,5.50
2018-04-17T05:16:19.022Z,5.12
2018-04-17T05:18:47.320Z,5.50
2018-04-17T05:21:15.557Z,5.32
2018-04-17T05:23:43.728Z,4.60
2018-04-17T05:26:11.900Z,5.30
2018-04-17T05:28:40.000Z,4.60
2018-04-17T05:31:08.200Z,5.47
2018-04-17T05:33:36.287Z,5.10
2018-04-17T05:36:04.485Z,4.65
2018-04-17T05:38:32.678Z,5.90
2018-04-17T05:41:00.866Z,4.85
2018-04-17T05:43:28.814Z,5.07
2018-04-17T05:45:57.047Z,5.90
2018-04-17T05:48:25.346Z,5.20
2018-04-17T05:50:53.639Z,6.80
2018-04-17T05:53:21.934Z,6.57
2018-04-17T05:55:50.299Z,11.50
2018-04-17T05:58:18.649Z,6.55
2018-04-17T06:00:46.724Z,6.37
2018-04-17T06:03:14.931Z,7.00
2018-04-17T06:05:43.018Z,7.50
2018-04-17T06:08:11.106Z,6.20
2018-04-17T06:10:39.209Z,6.40
2018-04-17T06:13:07.286Z,6.87
2018-04-17T06:15:35.386Z,7.05
2018-04-17T06:18:03.580Z,7.18
2018-04-17T06:20:31.665Z,6.65
2018-04-17T06:22:59.860Z,5.47
2018-04-17T06:25:28.160Z,6.40
2018-04-17T06:27:56.351Z,7.18
2018-04-17T06:30:24.661Z,6.25
2018-04-17T06:32:52.957Z,7.12
2018-04-17T06:35:21.241Z,6.40
2018-04-17T06:37:49.543Z,6.72
2018-04-17T06:40:17.638Z,6.37
2018-04-17T06:42:45.822Z,6.55
2018-04-17T06:45:13.919Z,7.07
2018-04-17T06:47:42.180Z,6.35
2018-04-17T06:50:10.424Z,6.53
2018-04-17T06:52:38.747Z,6.43
2018-04-17T06:55:07.011Z,5.70
2018-04-17T06:57:35.207Z,6.50
2018-04-17T07:00:03.282Z,4.95
2018-04-17T07:02:31.480Z,5.28
2018-04-17T07:04:59.813Z,5.32
2018-04-17T07:07:28.082Z,5.05
2018-04-17T07:09:56.059Z,6.87
2018-04-17T07:12:24.366Z,6.15
2018-04-17T07:14:52.661Z,6.00
2018-04-17T07:17:20.858Z,5.40
2018-04-17T07:19:49.866Z,5.30
2018-04-17T07:22:18.057Z,6.78
2018-04-17T07:24:46.160Z,6.95
2018-04-17T07:27:14.347Z,6.55
2018-04-17T07:29:42.447Z,5.10
2018-04-17T07:32:10.638Z,4.90
2018-04-17T07:34:38.762Z,6.15
2018-04-17T07:37:07.023Z,5.00
2018-04-17T07:39:35.222Z,5.37
2018-04-17T07:42:03.521Z,4.53
2018-04-17T07:44:31.856Z,4.62
2018-04-17T07:47:00.106Z,5.03
2018-04-17T07:49:28.200Z,4.62
2018-04-17T07:51:56.338Z,5.03
2018-04-17T07:54:24.378Z,4.62
2018-04-17T07:56:52.578Z,4.43
2018-04-17T07:59:20.680Z,4.40
2018-04-17T08:01:48.861Z,4.53
2018-04-17T08:04:16.964Z,4.80
2018-04-17T08:06:45.158Z,4.80
2018-04-17T08:09:13.454Z,4.03
2018-04-17T08:11:41.745Z,3.95
2018-04-17T08:14:10.041Z,4.40
2018-04-17T08:16:38.335Z,5.25
2018-04-17T08:19:06.646Z,4.40
2018-04-17T08:21:36.040Z,7.03
2018-04-17T08:24:04.348Z,7.20
2018-04-17T08:26:32.450Z,4.78
2018-04-17T08:29:00.642Z,4.37
2018-04-17T08:31:28.663Z,4.45
2018-04-17T08:33:56.762Z,4.03
2018-04-17T08:36:25.018Z,3.83
2018-04-17T08:38:53.217Z,5.22
2018-04-17T08:41:21.300Z,3.92
2018-04-17T08:43:49.497Z,3.65
2018-04-17T08:46:17.579Z,4.20
2018-04-17T08:48:45.794Z,3.90
2018-04-17T08:51:13.877Z,3.67
2018-04-17T08:53:42.064Z,3.75
2018-04-17T08:56:10.257Z,3.25
2018-04-17T08:58:38.472Z,3.95
2018-04-17T09:01:06.659Z,3.60
2018-04-17T09:03:34.956Z,4.75
2018-04-17T09:06:03.249Z,4.43
2018-04-17T09:08:31.639Z,3.83
2018-04-17T09:10:59.939Z,3.80
2018-04-17T09:13:28.337Z,4.83
2018-04-17T09:15:56.387Z,4.07
2018-04-17T09:18:24.522Z,4.87
2018-04-17T09:20:52.722Z,4.70
2018-04-17T09:23:20.922Z,4.93
2018-04-17T09:25:49.111Z,4.10
2018-04-17T09:28:17.301Z,4.10
2018-04-17T09:30:45.402Z,3.77
2018-04-17T09:33:13.634Z,4.50
2018-04-17T09:35:41.780Z,3.83
2018-04-17T09:38:09.970Z,3.80
2018-04-17T09:40:38.065Z,4.80
2018-04-17T09:43:06.262Z,4.37
2018-04-17T09:45:34.469Z,5.30
2018-04-17T09:48:02.762Z,3.70
2018-04-17T09:50:31.015Z,4.37
2018-04-17T09:52:59.341Z,3.95
2018-04-17T09:55:27.654Z,4.12
2018-04-17T09:57:55.785Z,4.85
2018-04-17T10:00:23.833Z,4.18
2018-04-17T10:02:52.028Z,4.35
2018-04-17T10:05:20.233Z,4.55
2018-04-17T10:07:48.521Z,4.28
2018-04-17T10:10:16.618Z,4.45
2018-04-17T10:12:44.797Z,4.05
2018-04-17T10:15:13.005Z,4.05
2018-04-17T10:17:42.013Z,5.17
2018-04-17T10:20:10.208Z,3.80
2018-04-17T10:22:38.324Z,3.87
2018-04-17T10:25:06.805Z,3.83
2018-04-17T10:27:35.097Z,3.37
2018-04-17T10:30:03.390Z,2.87
2018-04-17T10:32:31.591Z,4.47
2018-04-17T10:34:59.884Z,3.40
2018-04-17T10:37:28.179Z,2.45
2018-04-17T10:39:56.309Z,3.73
2018-04-17T10:42:24.353Z,3.17
2018-04-17T10:44:52.574Z,2.60
2018-04-17T10:47:20.660Z,2.75
2018-04-17T10:49:48.851Z,2.20
2018-04-17T10:52:17.038Z,3.03
2018-04-17T10:54:45.231Z,2.58
2018-04-17T10:57:13.325Z,2.42
2018-04-17T10:59:41.571Z,1.92
2018-04-17T11:02:09.717Z,2.37
2018-04-17T11:04:38.017Z,2.30
2018-04-17T11:07:06.204Z,2.40
2018-04-17T11:09:34.308Z,1.87
2018-04-17T11:12:02.391Z,1.70
2018-04-17T11:14:30.677Z,1.83
2018-04-17T11:16:58.777Z,2.00
2018-04-17T11:19:26.977Z,1.95
2018-04-17T11:21:55.180Z,2.10
2018-04-17T11:24:23.259Z,2.00
2018-04-17T11:26:51.460Z,2.12
2018-04-17T11:29:19.642Z,1.70
2018-04-17T11:31:47.746Z,2.95
2018-04-17T11:34:15.925Z,1.92
2018-04-17T11:36:44.124Z,1.92
2018-04-17T11:39:12.326Z,2.40
2018-04-17T11:41:40.625Z,2.10
2018-04-17T11:44:08.820Z,2.23
2018-04-17T11:46:37.126Z,2.03
2018-04-17T11:49:05.403Z,2.00
2018-04-17T11:51:33.710Z,2.17
2018-04-17T11:54:02.012Z,2.37
2018-04-17T11:56:30.209Z,2.20
2018-04-17T11:58:58.389Z,2.78
2018-04-17T12:01:26.488Z,2.08
2018-04-17T12:03:54.583Z,1.77
2018-04-17T12:06:22.862Z,1.83
2018-04-17T12:08:50.961Z,2.37
2018-04-17T12:11:19.063Z,2.15
2018-04-17T12:13:47.245Z,2.42
2018-04-17T12:16:15.442Z,2.97
2018-04-17T12:18:43.542Z,2.25
2018-04-17T12:21:11.840Z,2.87
2018-04-17T12:23:40.121Z,2.28
2018-04-17T12:26:08.228Z,2.75
2018-04-17T12:28:36.324Z,2.58
2018-04-17T12:31:04.616Z,2.55
2018-04-17T12:33:32.905Z,2.12
2018-04-17T12:36:01.095Z,2.00
2018-04-17T12:38:29.282Z,2.70
2018-04-17T12:40:57.676Z,2.78
2018-04-17T12:43:25.987Z,2.72
2018-04-17T12:45:54.195Z,2.50
2018-04-17T12:48:22.376Z,2.93
2018-04-17T12:50:50.462Z,2.47
2018-04-17T12:53:18.555Z,2.33
2018-04-17T12:55:46.655Z,2.30
2018-04-17T12:58:14.962Z,2.60
2018-04-17T13:00:43.142Z,2.20
2018-04-17T13:03:11.328Z,2.70
2018-04-17T13:05:39.549Z,2.30
2018-04-17T13:08:07.741Z,2.70
2018-04-17T13:10:35.922Z,2.27
2018-04-17T13:13:04.123Z,3.07
2018-04-17T13:15:32.232Z,2.40
2018-04-17T13:18:00.625Z,2.60
2018-04-17T13:20:28.902Z,2.40
2018-04-17T13:22:57.087Z,3.40
2018-04-17T13:25:25.203Z,2.83
2018-04-17T13:27:53.602Z,2.03
2018-04-17T13:30:21.779Z,2.37
2018-04-17T13:32:49.884Z,2.23
2018-04-17T13:35:18.068Z,2.37
2018-04-17T13:37:46.360Z,2.50
2018-04-17T13:40:14.561Z,2.67
2018-04-17T13:42:42.756Z,2.47
2018-04-17T13:45:11.070Z,2.07
2018-04-17T13:47:39.453Z,2.40
2018-04-17T13:50:07.754Z,2.13
2018-04-17T13:52:35.851Z,2.40
2018-04-17T13:55:04.138Z,2.03
2018-04-17T13:57:32.340Z,2.60
2018-04-17T14:00:00.518Z,2.10
2018-04-17T14:02:28.739Z,2.20
2018-04-17T14:04:56.920Z,1.70
2018-04-17T14:07:25.102Z,2.10
2018-04-17T14:09:53.354Z,2.00
2018-04-17T14:12:21.402Z,1.90
2018-04-17T14:14:49.585Z,2.43
2018-04-17T14:17:17.655Z,2.17
2018-04-17T14:19:45.886Z,2.23
2018-04-17T14:22:14.166Z,2.33
2018-04-17T14:24:42.467Z,2.53
2018-04-17T14:27:10.772Z,2.10
2018-04-17T14:29:39.067Z,2.40
2018-04-17T14:32:07.263Z,2.70
2018-04-17T14:34:35.558Z,2.37
2018-04-17T14:37:04.467Z,2.53
2018-04-17T14:39:32.575Z,2.07
2018-04-17T14:42:00.862Z,1.80
2018-04-17T14:44:30.388Z,1.80
2018-04-17T14:46:58.684Z,2.10
2018-04-17T14:49:26.774Z,2.53
2018-04-17T14:51:54.868Z,2.00
2018-04-17T14:54:23.111Z,1.80
2018-04-17T14:56:51.258Z,1.90
2018-04-17T14:59:19.653Z,2.33
2018-04-17T15:01:47.942Z,1.60
2018-04-17T15:04:16.133Z,2.27
2018-04-17T15:06:44.445Z,1.83
2018-04-17T15:09:12.724Z,2.07
2018-04-17T15:11:41.036Z,1.83
2018-04-17T15:14:09.431Z,1.70
2018-04-17T15:16:37.516Z,2.33
2018-04-17T15:19:05.823Z,2.10
2018-04-17T15:21:34.109Z,2.00
2018-04-17T15:24:02.203Z,2.30
2018-04-17T15:26:30.293Z,2.30
2018-04-17T15:28:58.488Z,2.00
2018-04-17T15:31:26.680Z,2.67
2018-04-17T15:33:54.783Z,2.30
2018-04-17T15:36:22.764Z,2.30
2018-04-17T15:38:50.963Z,2.03
2018-04-17T15:41:19.059Z,2.40
2018-04-17T15:43:47.245Z,2.30
2018-04-17T15:46:15.547Z,2.33
2018-04-17T15:48:43.943Z,2.20
2018-04-17T15:51:12.240Z,2.07
2018-04-17T15:53:40.441Z,2.40
2018-04-17T15:56:08.726Z,2.10
2018-04-17T15:58:37.047Z,2.23
2018-04-17T16:01:05.219Z,2.73
2018-04-17T16:03:33.490Z,2.67
2018-04-17T16:06:01.713Z,2.47
2018-04-17T16:08:29.826Z,2.80
2018-04-17T16:10:57.999Z,3.00
2018-04-17T16:13:26.104Z,3.67
2018-04-17T16:15:54.282Z,2.40
2018-04-17T16:18:22.478Z,2.83
2018-04-17T16:20:50.523Z,1.97
2018-04-17T16:23:18.882Z,2.90
2018-04-17T16:25:47.064Z,2.00
2018-04-17T16:28:15.267Z,2.30
2018-04-17T16:30:43.502Z,3.20
2018-04-17T16:33:11.753Z,2.40
2018-04-17T16:35:39.953Z,3.05
2018-04-17T16:38:08.038Z,2.50
2018-04-17T16:40:36.228Z,3.30
2018-04-17T16:43:04.332Z,3.17
2018-04-17T16:45:32.528Z,4.40
2018-04-17T16:48:00.598Z,3.55
2018-04-17T16:50:28.818Z,3.30
2018-04-17T16:52:56.902Z,3.60
2018-04-17T16:55:24.998Z,3.30
2018-04-17T16:57:53.186Z,3.45
2018-04-17T17:00:21.378Z,3.28
2018-04-17T17:02:49.498Z,3.45
2018-04-17T17:05:17.867Z,3.80
2018-04-17T17:07:46.165Z,2.95
2018-04-17T17:10:14.268Z,3.05
2018-04-17T17:12:42.554Z,2.55
2018-04-17T17:15:10.743Z,3.45
2018-04-17T17:17:38.944Z,2.78
2018-04-17T17:20:07.028Z,3.15
2018-04-17T17:22:35.227Z,3.60
2018-04-17T17:25:03.328Z,3.65
2018-04-17T17:27:31.509Z,3.75
2018-04-17T17:29:59.597Z,3.20
2018-04-17T17:32:27.644Z,4.10
2018-04-17T17:34:55.782Z,3.47
2018-04-17T17:37:24.097Z,3.67
2018-04-17T17:39:52.289Z,3.85
2018-04-17T17:42:20.469Z,3.00
2018-04-17T17:44:48.570Z,3.60
2018-04-17T17:47:16.670Z,3.35
2018-04-17T17:49:44.629Z,3.20
2018-04-17T17:52:12.749Z,3.60
2018-04-17T17:54:40.930Z,2.90
2018-04-17T17:57:09.128Z,3.42
2018-04-17T17:59:37.230Z,3.87
2018-04-17T18:02:05.314Z,3.17
2018-04-17T18:04:33.412Z,3.53
2018-04-17T18:07:01.523Z,3.90
2018-04-17T18:09:29.590Z,4.32
2018-04-17T18:11:57.789Z,4.07
2018-04-17T18:14:25.990Z,4.80
2018-04-17T18:16:54.169Z,4.75
2018-04-17T18:19:22.270Z,5.12
2018-04-17T18:21:50.469Z,4.32
2018-04-17T18:24:19.569Z,4.93
2018-04-17T18:26:47.768Z,5.90
2018-04-17T18:29:15.872Z,5.03
2018-04-17T18:31:44.068Z,4.57
2018-04-17T18:34:12.249Z,5.93
2018-04-17T18:36:40.350Z,5.03
2018-04-17T18:39:08.553Z,4.97
2018-04-17T18:41:36.730Z,4.87
2018-04-17T18:44:05.029Z,5.80
2018-04-17T18:46:33.229Z,5.80
2018-04-17T18:49:01.416Z,5.45
2018-04-17T18:51:29.598Z,5.30
2018-04-17T18:53:57.809Z,6.10
2018-04-17T18:56:26.007Z,6.00
2018-04-17T18:58:54.288Z,6.47
2018-04-17T19:01:22.491Z,5.68
2018-04-17T19:03:50.692Z,6.72
2018-04-17T19:06:18.872Z,7.22
2018-04-17T19:08:47.071Z,6.85
2018-04-17T19:11:15.272Z,6.37
2018-04-17T19:13:45.716Z,5.75
2018-04-17T19:16:14.010Z,5.60
2018-04-17T19:18:42.090Z,6.35
2018-04-17T19:21:10.192Z,6.20
2018-04-17T19:23:38.389Z,4.25
2018-04-17T19:26:06.591Z,4.37
2018-04-17T19:28:34.765Z,5.10
2018-04-17T19:31:02.871Z,5.10
2018-04-17T19:33:32.090Z,5.10
2018-04-17T19:36:00.271Z,5.22
2018-04-17T19:38:28.470Z,6.25
2018-04-17T19:40:56.672Z,5.12
2018-04-17T19:43:24.869Z,5.22
2018-04-17T19:45:53.049Z,6.20
2018-04-17T19:48:21.151Z,6.75
2018-04-17T19:50:49.369Z,6.10
2018-04-17T19:53:17.442Z,5.75
2018-04-17T19:55:45.522Z,5.82
2018-04-17T19:58:13.614Z,6.53
2018-04-17T20:00:41.822Z,6.28
2018-04-17T20:03:10.011Z,6.10
2018-04-17T20:05:38.205Z,6.62
2018-04-17T20:08:06.503Z,5.90
2018-04-17T20:10:34.800Z,6.25
2018-04-17T20:13:02.901Z,5.82
2018-04-17T20:15:31.181Z,5.47
2018-04-17T20:17:59.381Z,5.65
2018-04-17T20:20:27.560Z,5.43
2018-04-17T20:22:55.780Z,6.10
2018-04-17T20:25:23.860Z,6.40
2018-04-17T20:27:52.060Z,8.68
2018-04-17T20:30:20.159Z,9.15
2018-04-17T20:32:48.437Z,8.48
2018-04-17T20:35:16.540Z,8.73
2018-04-17T20:37:44.618Z,10.02
2018-04-17T20:40:12.817Z,9.25
2018-04-17T20:42:41.017Z,8.25
2018-04-17T20:45:09.097Z,7.90
2018-04-17T20:47:37.191Z,7.95
2018-04-17T20:50:05.390Z,7.43
2018-04-17T20:52:33.590Z,7.32
2018-04-17T20:55:01.779Z,7.93
2018-04-17T20:57:29.869Z,7.07
2018-04-17T20:59:57.980Z,7.25
2018-04-17T21:02:26.272Z,7.78
2018-04-17T21:04:54.464Z,7.80
2018-04-17T21:07:22.862Z,6.10
2018-04-17T21:09:51.145Z,6.37
2018-04-17T21:12:19.355Z,5.30
2018-04-17T21:14:47.439Z,5.60
2018-04-17T21:17:15.846Z,5.55
2018-04-17T21:19:43.883Z,5.53
2018-04-17T21:22:12.026Z,6.15
2018-04-17T21:24:40.124Z,6.62
2018-04-17T21:27:08.419Z,6.10
2018-04-17T21:29:36.611Z,6.32
2018-04-17T21:32:05.829Z,6.53
2018-04-17T21:34:34.028Z,7.07
2018-04-17T21:37:02.210Z,7.43
2018-04-17T21:39:30.308Z,7.70
2018-04-17T21:41:58.518Z,7.45
2018-04-17T21:44:26.896Z,6.65
2018-04-17T21:46:54.995Z,7.20
2018-04-17T21:49:23.306Z,7.22
2018-04-17T21:51:51.696Z,8.05
2018-04-17T21:54:20.106Z,8.63
2018-04-17T21:56:48.596Z,8.23
2018-04-17T21:59:16.707Z,8.52
2018-04-17T22:01:44.786Z,8.23
2018-04-17T22:04:12.976Z,8.93
2018-04-17T22:06:41.078Z,8.10
2018-04-17T22:09:09.467Z,8.20
2018-04-17T22:11:37.647Z,8.55
2018-04-17T22:14:05.850Z,6.95
2018-04-17T22:16:33.939Z,7.10
2018-04-17T22:19:02.039Z,6.75
2018-04-17T22:21:30.123Z,6.50
2018-04-17T22:23:58.413Z,6.87
2018-04-17T22:26:26.709Z,7.85
2018-04-17T22:28:55.012Z,6.90
2018-04-17T22:31:23.424Z,7.10
2018-04-17T22:33:51.712Z,8.02
2018-04-17T22:36:20.003Z,7.97
2018-04-17T22:38:48.210Z,8.20
2018-04-17T22:41:16.292Z,7.53
2018-04-17T22:43:44.388Z,7.12
2018-04-17T22:46:12.482Z,7.37
2018-04-17T22:48:40.683Z,6.43
2018-04-17T22:51:08.765Z,7.35
2018-04-17T22:53:36.955Z,6.10
2018-04-17T22:56:05.051Z,6.62
2018-04-17T22:58:33.358Z,6.62
2018-04-17T23:01:01.445Z,7.50
2018-04-17T23:03:29.733Z,7.20
2018-04-17T23:05:58.023Z,7.35
2018-04-17T23:08:26.331Z,7.55
2018-04-17T23:10:54.520Z,7.12
2018-04-17T23:13:22.821Z,7.87
2018-04-17T23:15:51.021Z,7.00
2018-04-17T23:18:19.205Z,6.95
2018-04-17T23:20:47.306Z,9.63
2018-04-17T23:23:15.502Z,7.07
2018-04-17T23:25:43.595Z,6.40
2018-04-17T23:28:12.205Z,6.50
2018-04-17T23:30:40.381Z,6.97
2018-04-17T23:33:08.482Z,7.25
2018-04-17T23:35:36.568Z,6.30
2018-04-17T23:38:05.684Z,6.50
2018-04-17T23:40:33.876Z,5.93
2018-04-17T23:43:02.085Z,6.07
2018-04-17T23:45:30.466Z,6.03
2018-04-17T23:47:58.682Z,6.15
2018-04-17T23:50:27.062Z,5.40
2018-04-17T23:52:55.361Z,6.68
2018-04-17T23:55:23.763Z,5.93
2018-04-17T23:57:52.160Z,6.30
